createdAt,value
2022-09-12T00:08:53.099Z,38.38
2022-09-12T00:18:56.294Z,44.50
2022-09-12T00:29:00.692Z,39.20
2022-09-12T00:39:04.136Z,41.47
2022-09-12T00:49:15.301Z,41.17
2022-09-12T00:59:22.952Z,43.50
2022-09-12T01:09:27.342Z,44.58
2022-09-12T01:19:58.493Z,59.27
2022-09-12T01:30:30.975Z,64.30
2022-09-12T01:40:43.598Z,47.10
2022-09-12T01:50:54.036Z,53.65
2022-09-12T02:01:03.514Z,50.17
2022-09-12T02:11:10.664Z,67.68
2022-09-12T02:21:14.204Z,57.95
2022-09-12T02:31:24.001Z,47.83
2022-09-12T02:41:27.551Z,45.53
2022-09-12T02:51:32.728Z,54.08
2022-09-12T03:12:09.658Z,49.33
2022-09-12T03:22:17.372Z,55.93
2022-09-12T03:32:21.701Z,44.20
2022-09-12T03:42:24.633Z,53.53
2022-09-12T03:52:29.276Z,54.72
2022-09-12T04:02:32.219Z,48.20
2022-09-12T04:12:36.663Z,57.65
2022-09-12T04:22:39.591Z,36.63
2022-09-12T04:32:43.864Z,77.55
2022-09-12T04:42:46.775Z,77.57
2022-09-12T04:52:52.740Z,76.68
2022-09-12T05:02:55.668Z,80.43
2022-09-12T05:13:01.897Z,70.90
2022-09-12T05:23:05.483Z,65.30
2022-09-12T05:33:09.805Z,51.53
2022-09-12T05:43:13.309Z,61.57
2022-09-12T05:53:17.790Z,53.28
2022-09-12T06:03:20.819Z,56.23
2022-09-12T06:13:25.121Z,57.65
2022-09-12T06:23:28.066Z,59.43
2022-09-12T06:33:33.316Z,54.03
2022-09-12T06:43:37.017Z,55.35
2022-09-12T06:53:41.773Z,53.80
2022-09-12T07:03:48.293Z,50.80
2022-09-12T07:13:55.222Z,40.05
2022-09-12T07:23:58.890Z,41.72
2022-09-12T07:34:06.255Z,41.38
2022-09-12T07:44:09.554Z,37.80
2022-09-12T07:54:14.136Z,35.45
2022-09-12T08:04:17.207Z,31.17
2022-09-12T08:14:21.920Z,37.72
2022-09-12T08:24:25.411Z,27.08
2022-09-12T08:34:29.854Z,24.42
2022-09-12T08:54:47.652Z,26.98
2022-09-12T09:04:53.070Z,24.65
2022-09-12T09:15:25.175Z,19.60
2022-09-12T09:25:42.129Z,15.35
2022-09-12T09:35:49.044Z,19.25
2022-09-12T09:45:53.349Z,15.80
2022-09-12T09:55:58.900Z,15.18
2022-09-12T10:06:04.165Z,13.15
2022-09-12T10:16:20.326Z,12.20
2022-09-12T10:26:23.579Z,10.02
2022-09-12T10:36:38.584Z,11.37
2022-09-12T10:46:41.661Z,11.68
2022-09-12T10:57:03.072Z,6.83
2022-09-12T11:07:18.573Z,7.82
2022-09-12T11:17:34.463Z,4.88
2022-09-12T11:27:58.541Z,5.88
2022-09-12T11:38:30.318Z,6.07
2022-09-12T11:48:45.877Z,3.50
2022-09-12T11:58:57.200Z,5.50
2022-09-12T12:09:00.523Z,3.95
2022-09-12T12:19:10.984Z,3.25
2022-09-12T12:29:15.111Z,6.00
2022-09-12T12:40:03.196Z,2.90
2022-09-12T12:50:13.462Z,7.35
2022-09-12T13:00:33.790Z,3.50
2022-09-12T13:10:39.160Z,4.00
2022-09-12T13:20:49.796Z,4.05
2022-09-12T13:31:01.880Z,3.80
2022-09-12T13:41:25.375Z,3.20
2022-09-12T13:51:32.598Z,3.17
2022-09-12T14:01:40.316Z,2.35
2022-09-12T14:11:44.739Z,4.22
2022-09-12T14:21:48.256Z,4.35
2022-09-12T14:32:03.807Z,3.92
2022-09-12T14:42:13.434Z,3.13
2022-09-12T14:52:28.771Z,2.30
2022-09-12T15:02:31.937Z,2.05
2022-09-12T15:12:36.198Z,4.10
2022-09-12T15:22:40.216Z,3.63
2022-09-12T15:32:45.950Z,3.20
2022-09-12T15:42:48.973Z,8.68
2022-09-12T15:52:53.652Z,3.65
2022-09-12T16:02:57.014Z,2.10
2022-09-12T16:13:01.371Z,3.33
2022-09-12T16:23:04.532Z,4.75
2022-09-12T16:33:08.827Z,3.90
2022-09-12T16:43:11.843Z,11.45
2022-09-12T16:53:16.368Z,9.70
2022-09-12T17:03:19.456Z,7.97
2022-09-12T17:13:23.967Z,9.13
2022-09-12T17:23:27.316Z,6.32
2022-09-12T17:33:32.178Z,6.78
2022-09-12T17:43:36.132Z,8.45
2022-09-12T17:53:41.495Z,4.78
2022-09-12T18:03:44.606Z,6.78
2022-09-12T18:13:49.265Z,7.63
2022-09-12T18:23:52.699Z,5.32
2022-09-12T18:33:57.357Z,6.50
2022-09-12T18:44:02.077Z,9.48
2022-09-12T18:54:08.872Z,12.73
2022-09-12T19:04:13.623Z,10.43
2022-09-12T19:14:19.729Z,13.43
2022-09-12T19:24:22.804Z,10.45
2022-09-12T19:34:27.161Z,15.15
2022-09-12T19:54:35.800Z,8.10
2022-09-12T20:04:39.187Z,9.88
2022-09-12T20:14:43.668Z,13.07
2022-09-12T20:34:50.955Z,9.25
2022-09-12T20:54:58.050Z,16.10
2022-09-12T21:05:01.130Z,10.80
2022-09-12T21:15:06.087Z,17.65
2022-09-12T21:25:10.778Z,13.57
2022-09-12T21:35:15.408Z,9.98
2022-09-12T21:45:19.377Z,18.98
2022-09-12T21:55:27.152Z,13.50
2022-09-12T22:05:32.664Z,15.52
2022-09-12T22:15:40.610Z,19.40
2022-09-12T22:25:44.165Z,16.75
2022-09-12T22:35:48.459Z,15.35
2022-09-12T22:45:51.382Z,13.48
2022-09-12T22:55:55.729Z,11.40
2022-09-12T23:05:59.365Z,10.68
2022-09-12T23:16:05.807Z,12.10
2022-09-12T23:26:12.638Z,14.45
2022-09-12T23:36:17.298Z,11.23
2022-09-12T23:46:21.474Z,12.82
2022-09-12T23:56:26.028Z,10.73
